Time,TemperatureF,DewpointF,PressureIn,WindDirection,WindDirectionDegrees,WindSpeedMPH,WindSpeedGustMPH,Humidity,HourlyPrecipIn,Conditions,Clouds,dailyrainin,SolarRadiationWatts/m^2,SoftwareType,DateUTC
2013-06-23 00:04:00,57.0,48.1,29.89,SW,229,1.0,1.0,72,0.00,,,0.00,0,Wunderground v.1.15,2013-06-23 07:04:00,
2013-06-23 00:09:00,57.0,48.1,29.89,SSW,195,0.0,0.0,72,0.00,,,0.00,0,Wunderground v.1.15,2013-06-23 07:09:00,
2013-06-23 00:19:00,56.9,47.6,29.89,SSW,201,2.0,2.0,71,0.00,,,0.00,0,Wunderground v.1.15,2013-06-23 07:19:00,
2013-06-23 00:29:00,56.9,50.5,29.89,South,183,3.0,3.0,79,0.00,,,0.00,0,Wunderground v.1.15,2013-06-23 07:29:00,
2013-06-23 00:39:00,57.1,51.7,29.89,South,180,0.0,0.0,82,0.00,,,0.00,0,Wunderground v.1.15,2013-06-23 07:39:00,
2013-06-23 00:49:00,57.3,51.9,29.89,NW,312,0.0,0.0,82,0.00,,,0.00,0,Wunderground v.1.15,2013-06-23 07:49:00,
2013-06-23 00:54:00,57.3,52.2,29.89,South,178,3.0,3.0,83,0.00,,,0.00,0,Wunderground v.1.15,2013-06-23 07:54:00,
2013-06-23 01:00:00,57.3,52.5,29.89,NW,323,1.0,1.0,84,0.00,,,0.00,0,Wunderground v.1.15,2013-06-23 08:00:00,
2013-06-23 01:10:00,57.2,51.8,29.89,SSW,207,5.0,5.0,82,0.00,,,0.00,0,Wunderground v.1.15,2013-06-23 08:10:00,
2013-06-23 01:15:00,57.1,52.0,29.89,South,184,4.0,5.0,83,0.00,,,0.00,0,Wunderground v.1.15,2013-06-23 08:15:00,
2013-06-23 01:20:00,57.2,52.1,29.89,SW,229,1.0,1.0,83,0.00,,,0.00,0,Wunderground v.1.15,2013-06-23 08:20:00,
2013-06-23 01:30:00,57.2,52.4,29.89,SSW,212,5.0,5.0,84,0.00,,,0.00,0,Wunderground v.1.15,2013-06-23 08:30:00,
2013-06-23 01:40:00,57.0,52.5,29.89,SSW,202,3.0,3.0,85,0.00,,,0.00,0,Wunderground v.1.15,2013-06-23 08:40:00,
2013-06-23 01:45:00,56.8,52.7,29.89,SSW,198,6.0,6.0,86,0.00,,,0.00,0,Wunderground v.1.15,2013-06-23 08:45:00,
2013-06-23 01:50:00,56.7,52.9,29.89,ESE,122,1.0,1.0,87,0.00,,,0.00,0,Wunderground v.1.15,2013-06-23 08:50:00,
2013-06-23 02:00:00,56.9,52.4,29.88,WSW,255,1.0,1.0,85,0.00,,,0.00,0,Wunderground v.1.15,2013-06-23 09:00:00,
2013-06-23 02:10:00,57.0,52.5,29.89,WNW,286,2.0,2.0,85,0.00,,,0.00,0,Wunderground v.1.15,2013-06-23 09:10:00,
2013-06-23 02:20:00,56.8,53.0,29.89,SSW,213,1.0,1.0,87,0.00,,,0.00,0,Wunderground v.1.15,2013-06-23 09:20:00,
2013-06-23 02:30:00,56.7,52.2,29.88,NNE,17,2.0,2.0,85,0.00,,,0.00,0,Wunderground v.1.15,2013-06-23 09:30:00,
2013-06-23 02:40:00,56.5,51.1,29.88,SW,214,0.0,0.0,82,0.00,,,0.00,0,Wunderground v.1.15,2013-06-23 09:40:00,
2013-06-23 02:45:00,56.4,49.6,29.88,WNW,285,5.0,5.0,78,0.00,,,0.00,0,Wunderground v.1.15,2013-06-23 09:45:00,
2013-06-23 02:50:00,56.3,47.8,29.88,SW,214,1.0,1.0,73,0.00,,,0.00,0,Wunderground v.1.15,2013-06-23 09:50:00,
2013-06-23 03:00:00,56.2,48.0,29.88,SSW,204,4.0,4.0,74,0.00,,,0.00,0,Wunderground v.1.15,2013-06-23 10:00:00,
2013-06-23 03:10:00,56.1,47.9,29.88,SSW,212,4.0,4.0,74,0.00,,,0.00,0,Wunderground v.1.15,2013-06-23 10:10:00,
2013-06-23 03:15:00,56.1,47.9,29.88,West,262,1.0,4.0,74,0.00,,,0.00,0,Wunderground v.1.15,2013-06-23 10:15:00,
2013-06-23 03:20:00,56.1,47.9,29.88,SSW,206,2.0,2.0,74,0.00,,,0.00,0,Wunderground v.1.15,2013-06-23 10:20:00,
2013-06-23 03:30:00,56.1,48.3,29.88,SSW,194,5.0,5.0,75,0.00,,,0.00,0,Wunderground v.1.15,2013-06-23 10:30:00,
2013-06-23 03:40:00,56.1,48.3,29.88,WSW,245,1.0,1.0,75,0.00,,,0.00,0,Wunderground v.1.15,2013-06-23 10:40:00,
2013-06-23 03:45:00,56.2,48.4,29.88,SSW,192,0.0,1.0,75,0.00,,,0.00,0,Wunderground v.1.15,2013-06-23 10:45:00,
2013-06-23 03:50:00,56.3,48.5,29.88,SSW,198,1.0,1.0,75,0.00,,,0.00,0,Wunderground v.1.15,2013-06-23 10:50:00,
2013-06-23 04:00:00,56.3,48.5,29.88,SW,224,2.0,2.0,75,0.00,,,0.00,0,Wunderground v.1.15,2013-06-23 11:00:00,
2013-06-23 04:10:00,56.2,48.7,29.87,SSW,205,1.0,1.0,76,0.00,,,0.00,0,Wunderground v.1.15,2013-06-23 11:10:00,
2013-06-23 04:15:00,56.1,48.6,29.88,West,265,4.0,4.0,76,0.00,,,0.00,0,Wunderground v.1.15,2013-06-23 11:15:00,
2013-06-23 04:20:00,56.0,48.5,29.87,SW,223,1.0,1.0,76,0.00,,,0.00,0,Wunderground v.1.15,2013-06-23 11:20:00,
2013-06-23 04:30:00,55.8,48.3,29.88,South,186,2.0,2.0,76,0.00,,,0.00,0,Wunderground v.1.15,2013-06-23 11:30:00,
2013-06-23 04:40:00,55.8,48.3,29.88,SSW,197,1.0,1.0,76,0.00,,,0.00,0,Wunderground v.1.15,2013-06-23 11:40:00,
2013-06-23 04:50:00,55.8,48.7,29.88,WSW,247,2.0,2.0,77,0.00,,,0.00,0,Wunderground v.1.15,2013-06-23 11:50:00,
2013-06-23 04:55:00,55.9,48.8,29.88,SSW,210,2.0,2.0,77,0.00,,,0.00,0,Wunderground v.1.15,2013-06-23 11:55:00,
2013-06-23 05:00:00,55.9,48.8,29.88,SSW,206,4.0,4.0,77,0.00,,,0.00,0,Wunderground v.1.15,2013-06-23 12:00:00,
2013-06-23 05:10:00,56.0,48.9,29.88,SSW,208,1.0,1.0,77,0.00,,,0.00,0,Wunderground v.1.15,2013-06-23 12:10:00,
2013-06-23 05:15:00,56.1,49.0,29.88,SSW,203,3.0,3.0,77,0.00,,,0.00,0,Wunderground v.1.15,2013-06-23 12:15:00,
2013-06-23 05:20:00,56.2,49.1,29.88,SW,223,0.0,0.0,77,0.00,,,0.00,0,Wunderground v.1.15,2013-06-23 12:20:00,
2013-06-23 05:30:00,56.3,49.2,29.88,SSW,204,2.0,2.0,77,0.00,,,0.00,0,Wunderground v.1.15,2013-06-23 12:30:00,
2013-06-23 05:40:00,56.4,49.3,29.88,SW,223,3.0,3.0,77,0.00,,,0.00,0,Wunderground v.1.15,2013-06-23 12:40:00,
2013-06-23 05:50:00,56.4,49.3,29.88,SW,214,0.0,0.0,77,0.00,,,0.00,0,Wunderground v.1.15,2013-06-23 12:50:00,
2013-06-23 06:00:00,56.4,49.3,29.88,SSW,209,2.0,2.0,77,0.00,,,0.00,0,Wunderground v.1.15,2013-06-23 13:00:00,
2013-06-23 06:10:00,56.5,49.4,29.88,SSW,198,3.0,3.0,77,0.00,,,0.00,0,Wunderground v.1.15,2013-06-23 13:10:00,
2013-06-23 06:15:00,56.5,49.7,29.88,SSW,201,0.0,3.0,78,0.00,,,0.00,0,Wunderground v.1.15,2013-06-23 13:15:00,
2013-06-23 06:20:00,56.5,49.7,29.88,SW,231,3.0,3.0,78,0.00,,,0.00,0,Wunderground v.1.15,2013-06-23 13:20:00,
2013-06-23 06:30:00,56.5,49.7,29.88,SSW,194,6.0,6.0,78,0.00,,,0.00,0,Wunderground v.1.15,2013-06-23 13:30:00,
2013-06-23 06:35:00,56.6,49.8,29.88,WSW,240,2.0,6.0,78,0.00,,,0.00,0,Wunderground v.1.15,2013-06-23 13:35:00,
2013-06-23 06:40:00,56.5,49.7,29.89,SSW,199,2.0,2.0,78,0.00,,,0.00,0,Wunderground v.1.15,2013-06-23 13:40:00,
2013-06-23 06:50:00,56.5,49.7,29.89,SSW,193,2.0,2.0,78,0.00,,,0.00,0,Wunderground v.1.15,2013-06-23 13:50:00,
2013-06-23 06:55:00,56.5,49.7,29.88,South,191,2.0,2.0,78,0.00,,,0.00,0,Wunderground v.1.15,2013-06-23 13:55:00,
2013-06-23 07:00:00,56.6,49.8,29.88,SSW,195,4.0,4.0,78,0.00,,,0.00,0,Wunderground v.1.15,2013-06-23 14:00:00,
2013-06-23 07:10:00,56.6,49.8,29.88,SSW,200,7.0,7.0,78,0.00,,,0.00,0,Wunderground v.1.15,2013-06-23 14:10:00,
2013-06-23 07:15:00,56.6,49.8,29.88,SSW,197,6.0,7.0,78,0.00,,,0.00,0,Wunderground v.1.15,2013-06-23 14:15:00,
2013-06-23 07:20:00,56.6,49.8,29.88,SW,217,1.0,1.0,78,0.00,,,0.00,0,Wunderground v.1.15,2013-06-23 14:20:00,
2013-06-23 07:30:00,56.7,49.9,29.88,WSW,246,0.0,0.0,78,0.00,,,0.00,0,Wunderground v.1.15,2013-06-23 14:30:00,
2013-06-23 07:40:00,56.8,50.0,29.88,South,188,1.0,1.0,78,0.00,,,0.00,0,Wunderground v.1.15,2013-06-23 14:40:00,
2013-06-23 07:50:00,57.0,50.2,29.88,SSW,197,1.0,1.0,78,0.00,,,0.00,0,Wunderground v.1.15,2013-06-23 14:50:00,
2013-06-23 07:55:00,57.2,50.4,29.88,WSW,257,0.0,1.0,78,0.00,,,0.00,0,Wunderground v.1.15,2013-06-23 14:55:00,
2013-06-23 08:00:00,57.2,50.4,29.88,SW,218,6.0,6.0,78,0.00,,,0.00,0,Wunderground v.1.15,2013-06-23 15:00:00,
2013-06-23 08:05:00,57.3,50.5,29.88,SW,217,5.0,6.0,78,0.00,,,0.00,0,Wunderground v.1.15,2013-06-23 15:05:00,
2013-06-23 08:10:00,57.3,50.5,29.88,SSW,210,4.0,4.0,78,0.00,,,0.00,0,Wunderground v.1.15,2013-06-23 15:10:00,
2013-06-23 08:20:00,57.4,50.6,29.88,SW,226,3.0,3.0,78,0.00,,,0.00,0,Wunderground v.1.15,2013-06-23 15:20:00,
2013-06-23 08:30:00,57.6,50.8,29.88,SSW,209,2.0,2.0,78,0.00,,,0.00,0,Wunderground v.1.15,2013-06-23 15:30:00,
2013-06-23 08:35:00,57.7,50.9,29.88,SSW,211,6.0,6.0,78,0.00,,,0.00,0,Wunderground v.1.15,2013-06-23 15:35:00,
2013-06-23 08:40:00,57.8,51.0,29.89,SSW,208,4.0,4.0,78,0.00,,,0.00,0,Wunderground v.1.15,2013-06-23 15:40:00,
2013-06-23 08:50:00,58.0,51.2,29.89,SW,229,4.0,4.0,78,0.00,,,0.00,0,Wunderground v.1.15,2013-06-23 15:50:00,
2013-06-23 09:00:00,58.2,51.0,29.89,SSW,202,1.0,1.0,77,0.00,,,0.00,0,Wunderground v.1.15,2013-06-23 16:00:00,
2013-06-23 09:05:00,58.6,51.4,29.89,SW,216,3.0,3.0,77,0.00,,,0.00,0,Wunderground v.1.15,2013-06-23 16:05:00,
2013-06-23 09:10:00,59.3,52.4,29.89,SW,230,3.0,3.0,78,0.00,,,0.00,0,Wunderground v.1.15,2013-06-23 16:10:00,
2013-06-23 09:20:00,59.8,52.2,29.89,SSW,210,8.0,8.0,76,0.00,,,0.00,0,Wunderground v.1.15,2013-06-23 16:20:00,
2013-06-23 09:25:00,59.9,52.3,29.90,SW,218,1.0,8.0,76,0.00,,,0.00,0,Wunderground v.1.15,2013-06-23 16:25:00,
2013-06-23 09:30:00,60.0,52.1,29.90,WSW,239,0.0,0.0,75,0.00,,,0.00,0,Wunderground v.1.15,2013-06-23 16:30:00,
2013-06-23 09:40:00,60.0,52.1,29.90,SW,217,2.0,2.0,75,0.00,,,0.00,0,Wunderground v.1.15,2013-06-23 16:40:00,
2013-06-23 09:50:00,59.9,51.6,29.90,South,191,7.0,7.0,74,0.00,,,0.00,0,Wunderground v.1.15,2013-06-23 16:50:00,
2013-06-23 09:55:00,59.9,51.6,29.90,SSW,210,2.0,7.0,74,0.00,,,0.00,0,Wunderground v.1.15,2013-06-23 16:55:00,
2013-06-23 10:00:00,59.9,51.6,29.90,SSW,204,9.0,9.0,74,0.00,,,0.00,0,Wunderground v.1.15,2013-06-23 17:00:00,
2013-06-23 10:05:00,60.0,51.7,29.91,SSW,207,4.0,9.0,74,0.00,,,0.00,0,Wunderground v.1.15,2013-06-23 17:05:00,
2013-06-23 10:10:00,60.1,51.8,29.91,SSW,197,3.0,3.0,74,0.00,,,0.00,0,Wunderground v.1.15,2013-06-23 17:10:00,
2013-06-23 10:15:00,60.1,51.8,29.91,SSW,210,5.0,5.0,74,0.00,,,0.00,0,Wunderground v.1.15,2013-06-23 17:15:00,
2013-06-23 10:20:00,60.1,51.8,29.91,SSW,200,2.0,2.0,74,0.00,,,0.00,0,Wunderground v.1.15,2013-06-23 17:20:00,
2013-06-23 10:25:00,60.2,51.9,29.91,SSW,212,2.0,2.0,74,0.00,,,0.00,0,Wunderground v.1.15,2013-06-23 17:25:00,
2013-06-23 10:35:00,60.7,52.0,29.91,SW,218,2.0,2.0,73,0.00,,,0.00,0,Wunderground v.1.15,2013-06-23 17:35:00,
2013-06-23 10:40:00,60.8,52.1,29.90,SSW,205,7.0,7.0,73,0.00,,,0.00,0,Wunderground v.1.15,2013-06-23 17:40:00,
2013-06-23 10:45:00,61.0,52.3,29.90,SSW,208,2.0,7.0,73,0.00,,,0.00,0,Wunderground v.1.15,2013-06-23 17:45:00,